Date,TemperatureHighF,TemperatureAvgF,TemperatureLowF,DewpointHighF,DewpointAvgF,DewpointLowF,HumidityHigh,HumidityAvg,HumidityLow,PressureMaxIn,PressureMinIn,WindSpeedMaxMPH,WindSpeedAvgMPH,GustSpeedMaxMPH,PrecipitationSumIn
2014-3-1,25,15,6,24,12,1,93,86,81,30.34,29.70,10,1,0,0.01
2014-3-2,26,12,3,22,7,-2,89,81,71,30.47,30.30,4,0,0,0.02
2014-3-3,57,43,18,27,21,14,91,46,23,30.30,29.74,11,2,0,0.05
2014-3-4,60,47,32,34,21,11,94,41,16,29.95,29.58,11,2,0,0.00
2014-3-5,50,39,29,34,25,9,95,63,22,30.14,29.90,3,1,0,0.31
2014-3-6,65,54,46,19,13,8,28,20,12,29.90,29.55,17,5,0,0.00
2014-3-7,52,37,32,32,29,19,96,77,28,30.21,29.51,9,1,0,0.24
2014-3-8,47,38,30,31,25,13,94,62,27,30.34,30.13,9,1,0,0.47
2014-3-9,67,56,42,14,5,-2,31,14,8,30.14,29.77,12,4,0,0.00
2014-3-10,71,58,50,22,7,-5,27,14,7,29.79,29.40,19,2,0,0.00
2014-3-11,56,38,26,28,19,5,89,51,13,30.39,29.35,17,4,0,0.00
2014-3-12,52,35,21,14,9,3,66,37,15,30.46,30.09,5,1,0,0.00
2014-3-13,60,46,31,15,9,4,36,24,13,30.09,29.70,12,2,0,0.00
2014-3-14,62,47,32,17,12,-7,53,27,7,29.95,29.67,11,2,0,0.00
2014-3-15,50,42,27,25,15,5,71,36,18,30.33,29.64,12,3,0,0.00
2014-3-16,63,43,25,25,17,8,73,42,14,30.34,29.80,16,2,0,0.00
2014-3-17,67,53,34,25,11,0,47,21,9,29.80,29.08,16,4,0,0.00
2014-3-18,40,34,26,19,10,3,62,37,27,30.15,29.17,19,5,0,0.00
2014-3-19,54,40,24,16,9,1,61,33,12,30.15,29.88,11,2,0,0.00
2014-3-20,66,52,40,4,-2,-9,18,11,6,29.87,29.60,18,4,0,0.00
2014-3-21,50,38,26,23,16,-3,81,46,11,30.11,29.59,6,1,0,0.00
2014-3-22,35,27,23,25,21,16,92,80,52,30.45,30.03,10,3,0,0.02
2014-3-23,57,37,21,31,16,2,92,56,12,30.43,29.90,14,2,0,0.09
2014-3-24,42,32,24,22,19,17,76,61,42,30.32,30.08,6,1,0,0.00
2014-3-25,54,39,26,27,23,19,78,55,32,30.33,29.66,6,1,0,0.00
2014-3-26,67,52,38,33,18,8,71,30,13,29.65,29.12,18,3,0,0.01
2014-3-27,57,45,37,34,21,7,89,45,14,29.74,29.15,21,4,0,0.02
2014-3-28,52,42,33,33,13,6,88,33,17,30.09,29.73,15,4,0,0.01
2014-3-29,66,51,36,15,11,5,38,21,12,30.06,29.68,13,2,0,0.00
2014-3-30,72,55,39,35,16,7,77,24,10,29.69,29.23,16,2,0,0.07
2014-3-31,53,45,35,24,14,8,56,30,17,29.92,29.20,17,4,0,0.00